Time;durP1;ratioP1;P1;durP2;ratioP2;P2;SDS_P1;SDS_P2;PMS_P1;PMS_P2;Temp;Humidity;BMP_temperature;BMP_pressure;BME280_temperature;BME280_humidity;BME280_pressure;Samples;Min_cycle;Max_cycle;Signal;HPM_P1;HPM_P2
2022/05/06 00:01:29;;;;;;;8.40;3.72;;;9.70;99.90;;;;;;5072170;28;20036;-38
2022/05/06 00:03:54;;;;;;;7.75;4.53;;;9.70;99.90;;;;;;5083754;28;20081;-38
2022/05/06 00:06:23;;;;;;;9.55;4.28;;;9.80;99.90;;;;;;5090850;28;20028;-38
2022/05/06 00:08:48;;;;;;;6.32;4.00;;;9.70;99.90;;;;;;5091104;28;20090;-38
2022/05/06 00:11:15;;;;;;;6.65;3.75;;;9.70;99.90;;;;;;5090708;28;20024;-38
2022/05/06 00:13:40;;;;;;;5.15;4.15;;;9.70;99.90;;;;;;5090678;28;20451;-38
2022/05/06 00:16:06;;;;;;;6.05;3.85;;;9.60;99.90;;;;;;5090607;28;20016;-38
2022/05/06 00:18:32;;;;;;;6.95;3.78;;;9.60;99.90;;;;;;5089391;28;20028;-38
2022/05/06 00:20:58;;;;;;;8.25;3.60;;;9.60;99.90;;;;;;5090723;28;20035;-38
2022/05/06 00:23:23;;;;;;;5.75;4.20;;;9.60;99.90;;;;;;5089920;28;20054;-38
2022/05/06 00:25:49;;;;;;;5.63;3.75;;;9.50;99.90;;;;;;5090689;28;20432;-38
2022/05/06 00:28:15;;;;;;;4.30;3.47;;;9.40;99.90;;;;;;5090544;28;20031;-38
2022/05/06 00:30:41;;;;;;;5.88;4.03;;;9.30;99.90;;;;;;5075044;28;20027;-38
2022/05/06 00:33:09;;;;;;;9.95;4.60;;;9.30;99.90;;;;;;5081353;28;20027;-38
2022/05/06 00:35:37;;;;;;;11.43;4.30;;;9.30;99.90;;;;;;5090017;28;20170;-39
2022/05/06 00:38:05;;;;;;;6.35;3.83;;;9.30;99.90;;;;;;5090370;28;20493;-41
2022/05/06 00:40:31;;;;;;;6.05;4.03;;;9.20;99.90;;;;;;5078419;28;20028;-38
2022/05/06 00:42:56;;;;;;;5.97;4.20;;;9.10;99.90;;;;;;5081550;28;20085;-38
2022/05/06 00:45:22;;;;;;;5.40;4.05;;;9.10;99.90;;;;;;5090048;28;20013;-38
2022/05/06 00:47:49;;;;;;;9.88;4.72;;;9.00;99.90;;;;;;5090380;28;20486;-38
2022/05/06 00:50:16;;;;;;;5.72;4.10;;;9.00;99.90;;;;;;5090207;28;20057;-38
2022/05/06 00:52:42;;;;;;;6.32;3.88;;;9.00;99.90;;;;;;5088122;28;20024;-39
2022/05/06 00:55:09;;;;;;;6.72;3.78;;;8.90;99.90;;;;;;5090064;28;20024;-38
2022/05/06 00:57:35;;;;;;;9.50;4.35;;;8.80;99.90;;;;;;5090319;28;20043;-38
2022/05/06 01:00:18;;;;;;;7.07;4.18;;;8.80;99.90;;;;;;5089470;28;20028;-38
2022/05/06 01:02:44;;;;;;;5.53;4.20;;;8.70;99.90;;;;;;5089598;28;20031;-39
2022/05/06 01:05:09;;;;;;;5.68;4.32;;;8.70;99.90;;;;;;5090215;28;20024;-38
2022/05/06 01:07:36;;;;;;;6.72;4.40;;;8.70;99.90;;;;;;5090179;28;20040;-38
2022/05/06 01:10:02;;;;;;;7.60;4.25;;;8.60;99.90;;;;;;5082021;28;20040;-38
2022/05/06 01:12:27;;;;;;;5.63;3.78;;;8.60;99.90;;;;;;5079257;28;20021;-38
2022/05/06 01:14:53;;;;;;;5.55;4.53;;;8.60;99.90;;;;;;5089826;28;20401;-38
2022/05/06 01:17:18;;;;;;;4.35;3.80;;;8.60;99.90;;;;;;5089995;28;20110;-38
2022/05/06 01:19:44;;;;;;;7.07;3.88;;;8.50;99.90;;;;;;5089752;28;20274;-38
2022/05/06 01:22:09;;;;;;;6.10;3.97;;;8.50;99.90;;;;;;5088975;28;20497;-38
2022/05/06 01:24:35;;;;;;;5.82;4.25;;;8.50;99.90;;;;;;5089613;28;20031;-38
2022/05/06 01:27:11;;;;;;;5.28;4.30;;;8.50;99.90;;;;;;5089599;28;20443;-38
2022/05/06 01:29:38;;;;;;;7.75;4.78;;;8.60;99.90;;;;;;5089312;28;20020;-38
2022/05/06 01:32:04;;;;;;;7.25;4.32;;;8.60;99.90;;;;;;5088794;28;20031;-38
2022/05/06 01:34:32;;;;;;;8.32;4.95;;;8.60;99.90;;;;;;5089949;28;20511;-38
2022/05/06 01:37:01;;;;;;;7.18;5.03;;;8.70;99.90;;;;;;5089303;28;20028;-38
2022/05/06 01:39:31;;;;;;;6.22;4.35;;;8.70;99.90;;;;;;5089258;28;20101;-38
2022/05/06 01:42:02;;;;;;;5.88;4.22;;;8.70;99.90;;;;;;5071748;28;20111;-38
2022/05/06 01:44:31;;;;;;;6.63;4.13;;;8.60;99.90;;;;;;5087979;28;20061;-38
2022/05/06 01:47:00;;;;;;;8.05;4.47;;;8.60;99.90;;;;;;5089089;28;20012;-38
2022/05/06 01:49:26;;;;;;;4.53;3.70;;;8.50;99.90;;;;;;5089053;28;20059;-38
2022/05/06 01:51:54;;;;;;;5.53;3.78;;;8.40;99.90;;;;;;5088435;28;20499;-38
2022/05/06 01:54:20;;;;;;;7.28;4.25;;;8.30;99.90;;;;;;5089484;28;20039;-38
2022/05/06 01:56:46;;;;;;;4.82;3.70;;;8.20;99.90;;;;;;5088012;28;20024;-38
2022/05/06 01:59:12;;;;;;;4.90;3.85;;;8.10;99.90;;;;;;5088476;28;20028;-38
2022/05/06 02:01:37;;;;;;;4.93;4.10;;;8.10;99.90;;;;;;5088368;28;20028;-38
2022/05/06 02:06:47;;;;;;;4.32;3.70;;;8.10;99.90;;;;;;5088994;28;20114;-38
2022/05/06 02:09:13;;;;;;;6.47;4.57;;;8.00;99.90;;;;;;5088633;28;20111;-38
2022/05/06 02:11:38;;;;;;;7.50;4.40;;;8.00;99.90;;;;;;5074106;28;20458;-38
2022/05/06 02:14:04;;;;;;;6.07;4.38;;;8.00;99.90;;;;;;5084257;28;20032;-38
2022/05/06 02:16:29;;;;;;;8.48;5.20;;;8.00;99.90;;;;;;5088620;28;20047;-38
2022/05/06 02:18:55;;;;;;;11.00;4.97;;;8.00;99.90;;;;;;5088580;28;20047;-38
2022/05/06 02:21:20;;;;;;;10.25;4.90;;;8.00;99.90;;;;;;5088773;28;20020;-38
2022/05/06 02:23:46;;;;;;;6.57;4.47;;;8.00;99.90;;;;;;5086189;28;20385;-38
2022/05/06 02:26:11;;;;;;;8.73;4.68;;;8.00;99.90;;;;;;5059506;28;20032;-38
2022/05/06 02:28:37;;;;;;;7.15;5.05;;;8.00;99.90;;;;;;5048167;28;20502;-38
2022/05/06 02:33:46;;;;;;;9.00;4.53;;;8.10;99.90;;;;;;5048065;28;20513;-38
2022/05/06 02:36:12;;;;;;;6.60;4.70;;;8.10;99.90;;;;;;5048489;28;20033;-38
2022/05/06 02:38:38;;;;;;;9.15;5.03;;;8.00;99.90;;;;;;5048927;28;20397;-38
2022/05/06 02:41:04;;;;;;;8.52;5.20;;;7.90;99.90;;;;;;5059657;28;20032;-38
2022/05/06 02:43:29;;;;;;;8.18;4.75;;;8.00;99.90;;;;;;5059445;28;20029;-38
2022/05/06 02:45:55;;;;;;;6.35;4.65;;;8.00;99.90;;;;;;5048287;28;20021;-38
2022/05/06 02:48:20;;;;;;;6.30;4.40;;;8.00;99.90;;;;;;5048469;28;20486;-38
2022/05/06 02:50:47;;;;;;;6.95;4.38;;;7.90;99.90;;;;;;5048390;28;20501;-38
2022/05/06 02:53:12;;;;;;;8.70;4.63;;;7.90;99.90;;;;;;5055555;28;20035;-38
2022/05/06 02:55:38;;;;;;;8.27;4.38;;;7.90;99.90;;;;;;5057775;28;20100;-38
2022/05/06 02:58:04;;;;;;;7.63;4.80;;;7.90;99.90;;;;;;5057444;28;20025;-38
2022/05/06 03:00:30;;;;;;;6.97;4.40;;;7.80;99.90;;;;;;5049907;28;20036;-38
2022/05/06 03:02:56;;;;;;;8.57;4.78;;;7.70;99.90;;;;;;5058318;28;20025;-38
2022/05/06 03:05:23;;;;;;;7.68;4.35;;;7.60;99.90;;;;;;5055502;28;20017;-38
2022/05/06 03:07:48;;;;;;;8.00;4.40;;;7.50;99.90;;;;;;5057628;28;20471;-38
2022/05/06 03:10:14;;;;;;;7.40;4.28;;;7.50;99.90;;;;;;5063104;28;20144;-38
2022/05/06 03:12:43;;;;;;;7.00;4.50;;;7.40;99.90;;;;;;5074984;28;20027;-38
2022/05/06 03:15:09;;;;;;;5.97;4.75;;;7.40;99.90;;;;;;5092465;28;20023;-38
2022/05/06 03:17:35;;;;;;;8.38;5.53;;;7.40;99.90;;;;;;5092036;28;20043;-38
2022/05/06 03:20:01;;;;;;;6.43;5.00;;;7.30;99.90;;;;;;5091840;28;20263;-38
2022/05/06 03:22:28;;;;;;;7.18;4.75;;;7.30;99.90;;;;;;5091163;28;20039;-38
2022/05/06 03:24:54;;;;;;;6.82;4.82;;;7.30;99.90;;;;;;5091850;28;20028;-38
2022/05/06 03:30:05;;;;;;;6.40;4.90;;;7.20;99.90;;;;;;5051610;28;20035;-38
2022/05/06 03:32:32;;;;;;;6.32;4.60;;;7.20;99.90;;;;;;5050690;28;20104;-38
2022/05/06 03:34:58;;;;;;;8.77;4.53;;;7.20;99.90;;;;;;5051526;28;20025;-38
2022/05/06 03:37:26;;;;;;;7.28;4.50;;;7.20;99.90;;;;;;5051734;28;20035;-38
2022/05/06 03:39:51;;;;;;;8.13;4.90;;;7.20;99.90;;;;;;5051075;28;20021;-38
2022/05/06 03:42:17;;;;;;;5.88;4.57;;;7.20;99.90;;;;;;5079025;28;20496;-38
2022/05/06 03:44:42;;;;;;;7.15;5.05;;;7.10;99.90;;;;;;5069231;28;20037;-38
2022/05/06 03:47:08;;;;;;;8.32;5.18;;;7.20;99.90;;;;;;5069902;28;20048;-38
2022/05/06 03:49:33;;;;;;;5.50;4.03;;;7.20;99.90;;;;;;5069475;28;20041;-38
2022/05/06 03:51:59;;;;;;;7.70;4.93;;;7.20;99.90;;;;;;5063804;28;20056;-38
2022/05/06 03:54:26;;;;;;;8.90;4.95;;;7.20;99.90;;;;;;5061435;28;20368;-38
2022/05/06 03:56:52;;;;;;;11.85;5.97;;;7.20;99.90;;;;;;5059171;28;20044;-38
2022/05/06 03:59:17;;;;;;;9.55;5.05;;;7.20;99.90;;;;;;5060760;28;20260;-38
2022/05/06 04:01:43;;;;;;;7.15;4.93;;;7.20;99.90;;;;;;5058693;28;20075;-38
2022/05/06 04:04:08;;;;;;;9.07;5.70;;;7.20;99.90;;;;;;5054639;28;20490;-38
2022/05/06 04:06:33;;;;;;;10.70;5.38;;;7.20;99.90;;;;;;5059521;28;20014;-38
2022/05/06 04:08:59;;;;;;;11.52;5.15;;;7.30;99.90;;;;;;5059051;28;20025;-38
2022/05/06 04:11:25;;;;;;;8.60;5.28;;;7.40;99.90;;;;;;5069240;28;20028;-37
2022/05/06 04:13:51;;;;;;;7.53;4.90;;;7.40;99.90;;;;;;5075941;28;20202;-38
2022/05/06 04:16:17;;;;;;;12.38;5.88;;;7.50;99.90;;;;;;5070609;28;20024;-38
2022/05/06 04:18:43;;;;;;;7.88;5.15;;;7.50;99.90;;;;;;5070429;28;20029;-38
2022/05/06 04:23:53;;;;;;;8.07;5.20;;;7.60;99.90;;;;;;5070299;28;20085;-38
2022/05/06 04:26:18;;;;;;;8.05;5.03;;;7.50;99.90;;;;;;5070432;28;20631;-38
2022/05/06 04:28:44;;;;;;;7.63;5.07;;;7.50;99.90;;;;;;5070399;28;20124;-38
2022/05/06 04:31:10;;;;;;;6.88;5.13;;;7.50;99.90;;;;;;5069906;28;20516;-38
2022/05/06 04:33:39;;;;;;;8.27;5.07;;;7.60;99.90;;;;;;5069452;28;20028;-38
2022/05/06 04:36:06;;;;;;;9.68;4.90;;;7.60;99.90;;;;;;5070111;28;20525;-38
2022/05/06 04:38:31;;;;;;;8.13;5.10;;;7.60;99.90;;;;;;5070125;28;20056;-38
2022/05/06 04:40:58;;;;;;;7.32;4.53;;;7.70;99.90;;;;;;5071867;28;20062;-38
2022/05/06 04:43:25;;;;;;;5.85;4.70;;;7.70;99.90;;;;;;5080117;28;20028;-38
2022/05/06 04:45:51;;;;;;;6.07;4.82;;;7.80;99.90;;;;;;5090125;28;20031;-38
2022/05/06 04:48:18;;;;;;;8.77;5.05;;;7.90;99.90;;;;;;5090176;28;20103;-38
2022/05/06 04:50:44;;;;;;;7.70;4.43;;;7.90;99.90;;;;;;5090043;28;20524;-37
2022/05/06 04:53:11;;;;;;;7.03;4.82;;;8.00;99.90;;;;;;5089494;28;20028;-43
2022/05/06 04:55:48;;;;;;;7.05;5.05;;;8.00;99.90;;;;;;5089939;28;20032;-38
2022/05/06 04:58:15;;;;;;;8.02;5.80;;;8.20;99.90;;;;;;5089854;28;20107;-38
2022/05/06 05:00:41;;;;;;;16.25;7.45;;;8.20;99.90;;;;;;5089542;28;20508;-39
2022/05/06 05:03:07;;;;;;;14.90;6.55;;;8.30;99.90;;;;;;5065934;28;20200;-37
2022/05/06 05:05:33;;;;;;;13.75;6.72;;;8.40;99.90;;;;;;5050002;28;20028;-38
2022/05/06 05:07:58;;;;;;;11.60;6.55;;;8.40;99.90;;;;;;5049735;28;20509;-38
2022/05/06 05:10:24;;;;;;;17.33;6.82;;;8.50;99.90;;;;;;5052161;28;20025;-38
2022/05/06 05:12:50;;;;;;;11.93;6.50;;;8.60;99.90;;;;;;5079946;28;20024;-38
2022/05/06 05:15:16;;;;;;;12.68;7.45;;;8.70;99.90;;;;;;5089349;28;20028;-38
2022/05/06 05:17:46;;;;;;;12.98;6.35;;;8.70;99.90;;;;;;5089421;28;20028;-38
2022/05/06 05:20:12;;;;;;;9.33;5.93;;;8.80;99.90;;;;;;5089716;28;20393;-38
2022/05/06 05:22:38;;;;;;;10.48;7.00;;;8.80;99.90;;;;;;5088895;28;20024;-38
2022/05/06 05:25:05;;;;;;;12.02;7.30;;;8.90;99.90;;;;;;5089865;28;20024;-38
2022/05/06 05:27:31;;;;;;;13.88;7.15;;;8.90;99.90;;;;;;5089819;28;20016;-38
2022/05/06 05:29:57;;;;;;;10.70;7.38;;;9.00;99.90;;;;;;5089226;28;20027;-38
2022/05/06 05:32:23;;;;;;;14.45;8.85;;;9.10;99.90;;;;;;5088207;28;20028;-53
2022/05/06 05:34:49;;;;;;;15.40;8.40;;;9.10;99.90;;;;;;5088359;28;20028;-38
2022/05/06 05:37:14;;;;;;;12.43;7.75;;;9.20;99.90;;;;;;5069365;28;20370;-46
2022/05/06 05:39:40;;;;;;;14.20;8.75;;;9.30;99.90;;;;;;5066802;28;20385;-39
2022/05/06 05:42:06;;;;;;;16.25;9.70;;;9.30;99.90;;;;;;5072766;28;20032;-38
2022/05/06 05:50:05;;;;;;;13.02;8.32;;;9.50;99.90;;;;;;5089735;28;20089;-38
2022/05/06 05:52:30;;;;;;;13.05;8.55;;;9.60;99.90;;;;;;5088459;28;20016;-48
2022/05/06 05:54:56;;;;;;;22.73;9.65;;;9.70;99.90;;;;;;5089060;28;20526;-39
2022/05/06 05:57:21;;;;;;;11.18;8.20;;;9.70;99.90;;;;;;5087815;28;20052;-42
2022/05/06 05:59:47;;;;;;;12.75;7.78;;;9.80;99.90;;;;;;5088805;28;20518;-38
2022/05/06 06:02:12;;;;;;;12.98;8.52;;;9.90;99.90;;;;;;5088410;28;20024;-38
2022/05/06 06:04:42;;;;;;;12.90;8.85;;;10.00;99.90;;;;;;5088932;28;20024;-38
2022/05/06 06:07:07;;;;;;;12.02;8.32;;;10.10;99.90;;;;;;5088880;28;20046;-38
2022/05/06 06:09:33;;;;;;;16.42;9.40;;;10.10;99.90;;;;;;5088996;28;20046;-38
2022/05/06 06:11:58;;;;;;;14.02;9.18;;;10.20;99.90;;;;;;5071251;28;20421;-38
2022/05/06 06:14:24;;;;;;;15.02;8.70;;;10.30;99.90;;;;;;5087117;28;20477;-38
2022/05/06 06:16:50;;;;;;;12.43;8.82;;;10.40;99.90;;;;;;5088706;28;20422;-38
2022/05/06 06:19:16;;;;;;;14.10;9.93;;;10.40;99.90;;;;;;5087522;28;20055;-38
2022/05/06 06:21:42;;;;;;;15.70;10.52;;;10.50;99.90;;;;;;5087914;28;20048;-38
2022/05/06 06:24:07;;;;;;;13.55;9.20;;;10.60;99.90;;;;;;5088837;28;20023;-37
2022/05/06 06:26:33;;;;;;;15.43;9.82;;;10.70;99.90;;;;;;5087722;28;20572;-37
2022/05/06 06:28:58;;;;;;;17.13;11.57;;;10.70;99.90;;;;;;5088794;28;20385;-38
2022/05/06 06:31:24;;;;;;;22.92;11.18;;;10.80;99.90;;;;;;5088559;28;20473;-37
2022/05/06 06:33:50;;;;;;;19.27;10.75;;;10.90;99.90;;;;;;5088128;28;20039;-37
2022/05/06 06:36:15;;;;;;;18.90;10.23;;;11.00;99.90;;;;;;5088714;28;20028;-38
2022/05/06 06:38:41;;;;;;;16.17;11.38;;;11.10;99.90;;;;;;5088652;28;20119;-38
2022/05/06 06:41:06;;;;;;;20.85;11.90;;;11.20;99.90;;;;;;5078040;28;20032;-38
2022/05/06 06:43:32;;;;;;;16.70;10.93;;;11.30;99.90;;;;;;5079679;28;20023;-38
2022/05/06 06:45:58;;;;;;;16.75;10.63;;;11.40;99.90;;;;;;5092333;28;20492;-38
2022/05/06 06:48:25;;;;;;;21.02;11.80;;;11.60;99.90;;;;;;5092511;28;20020;-38
2022/05/06 06:50:52;;;;;;;19.85;10.32;;;11.70;99.90;;;;;;5092568;28;20032;-38
2022/05/06 06:53:18;;;;;;;22.50;13.32;;;11.80;99.90;;;;;;5090723;28;20024;-36
2022/05/06 06:55:44;;;;;;;23.90;13.80;;;11.90;99.90;;;;;;5092337;28;20179;-35
2022/05/06 06:58:09;;;;;;;18.90;12.82;;;11.90;99.90;;;;;;5091350;28;20103;-36
2022/05/06 07:00:35;;;;;;;22.40;13.10;;;12.00;99.90;;;;;;5092263;28;20166;-37
2022/05/06 07:03:00;;;;;;;23.38;13.07;;;12.20;99.90;;;;;;5090609;28;20028;-37
2022/05/06 07:05:26;;;;;;;18.95;12.85;;;12.30;99.90;;;;;;5092479;28;20024;-40
2022/05/06 07:13:19;;;;;;;25.27;15.07;;;12.70;99.90;;;;;;5083268;28;20085;-37
2022/05/06 07:15:45;;;;;;;25.10;13.82;;;12.80;99.90;;;;;;5091922;28;20020;-37
2022/05/06 07:18:10;;;;;;;18.90;12.80;;;13.00;99.90;;;;;;5092472;28;20481;-37
2022/05/06 07:20:36;;;;;;;25.10;13.68;;;13.10;99.90;;;;;;5092419;28;20044;-37
2022/05/06 07:23:04;;;;;;;22.05;13.80;;;13.30;99.90;;;;;;5090473;28;20039;-36
2022/05/06 07:25:29;;;;;;;24.88;15.00;;;13.40;99.90;;;;;;5092059;28;20016;-37
2022/05/06 07:27:55;;;;;;;19.15;12.40;;;13.50;99.90;;;;;;5092020;28;20094;-37
2022/05/06 07:30:21;;;;;;;19.30;12.23;;;13.60;99.90;;;;;;5091908;28;20078;-37
2022/05/06 07:32:47;;;;;;;21.35;12.20;;;13.70;99.90;;;;;;5091057;28;20065;-37
2022/05/06 07:35:13;;;;;;;16.42;10.40;;;13.90;99.90;;;;;;5091595;28;20028;-37
2022/05/06 07:37:38;;;;;;;17.85;10.65;;;14.00;99.90;;;;;;5085878;28;20032;-37
2022/05/06 07:40:05;;;;;;;18.27;11.25;;;14.20;99.90;;;;;;5073828;28;20359;-37
2022/05/06 07:42:33;;;;;;;15.48;11.52;;;14.40;99.90;;;;;;5090389;28;20047;-37
2022/05/06 07:44:59;;;;;;;14.93;10.48;;;14.50;99.90;;;;;;5091179;28;20059;-37
2022/05/06 07:47:24;;;;;;;13.27;9.25;;;14.70;99.90;;;;;;5091617;28;20044;-37
2022/05/06 07:49:50;;;;;;;17.13;10.13;;;14.90;99.90;;;;;;5091370;28;20481;-37
2022/05/06 07:52:15;;;;;;;13.45;10.05;;;15.10;99.90;;;;;;5090813;28;20099;-37
2022/05/06 07:54:41;;;;;;;16.35;10.27;;;15.30;99.90;;;;;;5091555;28;20141;-38
2022/05/06 07:57:06;;;;;;;14.38;9.40;;;15.40;98.50;;;;;;5090568;28;20397;-37
2022/05/06 07:59:32;;;;;;;14.75;8.55;;;15.60;97.90;;;;;;5091035;28;20063;-37
2022/05/06 08:04:47;;;;;;;15.10;9.18;;;16.00;97.40;;;;;;5091125;28;20035;-38
2022/05/06 08:07:13;;;;;;;12.75;8.05;;;16.30;98.00;;;;;;5091091;28;20074;-37
2022/05/06 08:09:38;;;;;;;15.02;8.27;;;16.60;96.20;;;;;;5073544;28;20444;-38
2022/05/06 08:12:05;;;;;;;16.83;8.80;;;16.90;97.60;;;;;;5085882;28;20104;-38
2022/05/06 08:14:31;;;;;;;14.35;8.27;;;16.90;96.50;;;;;;5090631;28;20024;-38
2022/05/06 08:16:57;;;;;;;12.82;8.35;;;17.10;94.70;;;;;;5090820;28;20028;-38
2022/05/06 08:19:22;;;;;;;15.65;7.60;;;17.30;94.60;;;;;;5090986;28;20031;-38
2022/05/06 08:21:48;;;;;;;12.57;7.47;;;17.80;95.70;;;;;;5090033;28;20020;-38
2022/05/06 08:24:14;;;;;;;9.60;6.32;;;18.30;94.00;;;;;;5072483;28;20115;-38
2022/05/06 08:26:39;;;;;;;11.45;7.35;;;19.10;92.00;;;;;;5090668;28;20020;-38
2022/05/06 08:29:05;;;;;;;8.13;6.18;;;20.00;89.00;;;;;;5090692;28;20415;-36
2022/05/06 08:31:37;;;;;;;9.60;6.53;;;21.20;84.60;;;;;;5090006;28;20103;-36
2022/05/06 08:34:04;;;;;;;7.53;5.15;;;22.80;77.00;;;;;;5090822;28;20028;-37
2022/05/06 08:36:29;;;;;;;7.20;6.15;;;23.30;72.90;;;;;;5090948;28;20016;-37
2022/05/06 08:38:54;;;;;;;7.97;5.82;;;24.60;66.70;;;;;;5077266;28;20036;-37
2022/05/06 08:41:23;;;;;;;7.95;4.43;;;25.50;62.40;;;;;;5065991;28;20040;-37
2022/05/06 08:43:48;;;;;;;7.63;5.57;;;26.60;59.40;;;;;;5081770;28;20427;-37
2022/05/06 08:51:48;;;;;;;6.50;4.88;;;28.80;52.00;;;;;;5069630;28;20039;-37
2022/05/06 08:54:15;;;;;;;11.25;5.53;;;29.00;50.90;;;;;;5068508;28;20124;-37
2022/05/06 08:56:40;;;;;;;6.40;4.90;;;29.50;50.20;;;;;;5070128;28;20030;-37
2022/05/06 08:59:06;;;;;;;9.10;5.43;;;29.60;50.20;;;;;;5067202;28;20511;-37
2022/05/06 09:01:32;;;;;;;9.73;6.53;;;30.10;47.80;;;;;;5065034;28;20040;-40
2022/05/06 09:03:57;;;;;;;9.52;5.82;;;30.40;46.50;;;;;;5055310;28;20029;-38
2022/05/06 09:06:25;;;;;;;8.55;6.20;;;30.80;47.80;;;;;;5055335;28;20029;-38
2022/05/06 09:08:53;;;;;;;7.47;5.25;;;31.80;46.10;;;;;;5067213;28;20068;-38
2022/05/06 09:12:40;;;;;;;6.88;6.28;;;31.50;45.10;;;;;;5051352;28;20501;-38
2022/05/06 09:14:07;;;;;;;9.25;7.03;;;31.10;45.80;;;;;;5079110;28;20032;-38
2022/05/06 09:16:42;;;;;;;7.70;6.93;;;30.50;44.90;;;;;;5088698;28;20505;-38
2022/05/06 09:19:19;;;;;;;5.93;4.38;;;31.20;45.80;;;;;;5055777;28;20068;-38
2022/05/06 09:22:06;;;;;;;8.30;5.82;;;31.30;45.50;;;;;;5047985;28;20075;-38
2022/05/06 09:24:33;;;;;;;5.25;4.60;;;31.50;45.00;;;;;;5050689;28;20040;-38
2022/05/06 09:27:01;;;;;;;6.95;5.57;;;31.70;44.90;;;;;;5049506;28;20482;-38
2022/05/06 09:29:31;;;;;;;6.40;5.63;;;32.20;44.10;;;;;;5048693;28;20108;-38
2022/05/06 09:32:24;;;;;;;10.05;6.03;;;32.50;43.10;;;;;;5048303;28;20037;-38
2022/05/06 09:34:52;;;;;;;7.63;5.03;;;32.10;43.30;;;;;;5049477;28;20045;-39
2022/05/06 09:37:39;;;;;;;10.40;5.50;;;32.20;43.20;;;;;;5048496;28;20108;-39
2022/05/06 09:40:12;;;;;;;11.18;7.60;;;31.40;43.60;;;;;;5048330;28;20069;-39
2022/05/06 09:43:00;;;;;;;6.47;5.18;;;31.30;42.50;;;;;;5068273;28;20021;-39
2022/05/06 09:45:37;;;;;;;7.47;6.05;;;31.70;43.20;;;;;;5086615;28;20511;-39
2022/05/06 09:48:03;;;;;;;12.45;5.45;;;32.10;42.50;;;;;;5088889;28;20028;-39
2022/05/06 09:50:36;;;;;;;5.97;5.00;;;32.80;42.90;;;;;;5088536;28;20027;-39
2022/05/06 09:53:13;;;;;;;8.07;5.53;;;33.30;42.50;;;;;;5087843;28;20028;-39
2022/05/06 09:55:41;;;;;;;6.45;5.25;;;32.20;43.80;;;;;;5088486;28;20028;-39
2022/05/06 09:58:08;;;;;;;9.13;4.45;;;31.50;43.60;;;;;;5087997;28;20620;-38
2022/05/06 10:00:34;;;;;;;5.85;4.53;;;30.30;42.80;;;;;;5086434;28;20028;-38
2022/05/06 10:03:01;;;;;;;10.35;5.88;;;29.00;44.70;;;;;;5087566;28;20024;-38
2022/05/06 10:05:27;;;;;;;11.60;6.82;;;27.80;46.00;;;;;;5088123;28;20047;-38
2022/05/06 10:07:56;;;;;;;15.95;6.43;;;26.40;46.80;;;;;;5086993;28;20020;-37
2022/05/06 10:10:28;;;;;;;7.60;5.93;;;24.90;50.70;;;;;;5085989;28;20044;-38
2022/05/06 10:13:01;;;;;;;11.60;6.38;;;24.20;50.50;;;;;;5069075;28;20024;-37
2022/05/06 10:15:29;;;;;;;7.63;6.03;;;23.90;52.20;;;;;;5085643;28;20488;-37
2022/05/06 10:18:02;;;;;;;9.30;5.72;;;25.30;54.00;;;;;;5067800;28;20026;-38
2022/05/06 10:20:37;;;;;;;7.10;4.88;;;27.30;49.90;;;;;;5066920;28;20488;-38
2022/05/06 10:23:11;;;;;;;7.43;4.70;;;29.00;47.20;;;;;;5067487;28;20036;-39
2022/05/06 10:25:43;;;;;;;7.55;4.68;;;30.80;44.30;;;;;;5067877;28;20466;-39
2022/05/06 10:34:10;;;;;;;6.43;4.85;;;28.60;43.70;;;;;;5067438;28;20059;-38
2022/05/06 10:36:42;;;;;;;7.50;5.55;;;27.20;47.90;;;;;;5067358;28;20127;-38
2022/05/06 10:39:28;;;;;;;7.53;4.40;;;25.70;47.70;;;;;;5067868;28;20122;-37
2022/05/06 10:42:14;;;;;;;8.68;5.13;;;24.50;50.20;;;;;;5067177;28;20028;-37
2022/05/06 10:44:50;;;;;;;9.82;5.20;;;24.00;51.40;;;;;;5057065;28;20047;-37
2022/05/06 10:47:15;;;;;;;7.95;5.35;;;23.40;52.00;;;;;;5048003;28;20017;-37
2022/05/06 10:49:43;;;;;;;5.47;4.32;;;23.10;51.60;;;;;;5046236;28;20025;-37
2022/05/06 10:52:22;;;;;;;10.00;4.82;;;23.00;53.50;;;;;;5047144;28;20017;-37
2022/05/06 10:54:53;;;;;;;5.18;4.32;;;24.70;51.00;;;;;;5048231;28;20021;-37
2022/05/06 10:57:48;;;;;;;8.93;4.50;;;25.10;48.50;;;;;;5047546;28;20067;-37
2022/05/06 11:00:14;;;;;;;6.53;4.15;;;24.80;49.40;;;;;;5046511;28;20041;-37
2022/05/06 11:02:40;;;;;;;5.20;3.85;;;25.00;49.50;;;;;;5046739;28;20052;-37
2022/05/06 11:05:08;;;;;;;5.95;4.20;;;24.90;48.80;;;;;;5047248;28;20100;-38
2022/05/06 11:07:35;;;;;;;11.23;5.55;;;25.00;50.40;;;;;;5045922;28;20033;-38
2022/05/06 11:10:16;;;;;;;6.68;4.57;;;24.80;49.60;;;;;;5047470;28;20040;-37
2022/05/06 11:12:49;;;;;;;4.93;4.20;;;24.80;49.90;;;;;;5067343;28;20020;-37
2022/05/06 11:15:17;;;;;;;6.18;4.15;;;23.90;51.00;;;;;;5084733;28;20485;-37
2022/05/06 11:17:43;;;;;;;5.25;4.60;;;23.20;51.80;;;;;;5087275;28;20032;-37
2022/05/06 11:20:17;;;;;;;10.80;4.47;;;23.20;53.40;;;;;;5086895;28;20086;-37
2022/05/06 11:23:03;;;;;;;6.43;4.63;;;23.00;53.60;;;;;;5086784;28;20052;-37
2022/05/06 11:25:33;;;;;;;8.50;5.75;;;22.90;54.80;;;;;;5087210;28;20020;-37
2022/05/06 11:28:02;;;;;;;8.33;5.50;;;22.70;55.30;;;;;;5087316;28;20016;-37
2022/05/06 11:30:29;;;;;;;11.70;5.70;;;22.60;55.50;;;;;;5086974;28;20024;-37
2022/05/06 11:33:02;;;;;;;7.90;5.47;;;22.50;54.90;;;;;;5090490;28;20550;-37
2022/05/06 11:35:31;;;;;;;9.73;4.70;;;22.40;54.30;;;;;;5090542;28;20028;-37
2022/05/06 11:37:56;;;;;;;7.20;4.25;;;22.30;55.20;;;;;;5091218;28;20036;-37
2022/05/06 11:40:34;;;;;;;6.18;3.95;;;22.30;57.80;;;;;;5089157;28;20065;-38
2022/05/06 11:43:01;;;;;;;6.95;3.78;;;22.40;54.60;;;;;;5072095;28;20067;-37
2022/05/06 11:48:13;;;;;;;7.72;3.90;;;23.20;55.30;;;;;;5091080;28;20107;-37
2022/05/06 11:50:40;;;;;;;7.13;4.25;;;23.50;52.60;;;;;;5088746;28;20025;-38
2022/05/06 11:53:09;;;;;;;9.30;4.55;;;23.90;49.90;;;;;;5090150;28;20024;-38
2022/05/06 11:55:40;;;;;;;9.40;3.80;;;24.90;50.60;;;;;;5089234;28;20063;-38
2022/05/06 11:58:07;;;;;;;5.75;4.50;;;25.60;48.40;;;;;;5090195;28;20032;-37
2022/05/06 12:00:33;;;;;;;4.45;3.72;;;25.60;48.20;;;;;;5090038;28;20017;-37
2022/05/06 12:03:04;;;;;;;6.55;4.50;;;25.70;50.10;;;;;;5090169;28;20024;-37
2022/05/06 12:05:30;;;;;;;10.88;5.32;;;25.50;48.30;;;;;;5089955;28;20034;-37
2022/05/06 12:07:55;;;;;;;5.20;3.42;;;24.70;48.40;;;;;;5090440;28;20032;-36
2022/05/06 12:10:25;;;;;;;5.72;3.67;;;25.00;48.10;;;;;;5088714;28;20044;-38
2022/05/06 12:12:52;;;;;;;3.83;3.40;;;24.80;49.10;;;;;;5071434;28;20095;-37
2022/05/06 12:15:17;;;;;;;5.88;4.55;;;24.80;48.70;;;;;;5086302;28;20485;-37
2022/05/06 12:17:43;;;;;;;4.97;3.35;;;24.60;48.60;;;;;;5089801;28;20028;-37
2022/05/06 12:20:29;;;;;;;7.00;3.47;;;24.50;48.60;;;;;;5074527;28;20021;-37
2022/05/06 12:22:58;;;;;;;7.78;3.67;;;24.00;50.50;;;;;;5068727;28;20028;-37
2022/05/06 12:25:24;;;;;;;7.78;3.60;;;23.90;50.30;;;;;;5069723;28;20020;-38
2022/05/06 12:28:15;;;;;;;6.38;3.70;;;23.80;50.40;;;;;;5069627;28;20489;-37
2022/05/06 12:30:42;;;;;;;6.07;3.08;;;24.00;51.00;;;;;;5069347;28;20502;-37
2022/05/06 12:33:09;;;;;;;6.60;3.85;;;24.10;51.60;;;;;;5067684;28;20025;-37
2022/05/06 12:35:56;;;;;;;6.53;4.00;;;24.00;50.40;;;;;;5075956;28;20016;-38
2022/05/06 12:38:44;;;;;;;4.25;3.25;;;24.00;50.80;;;;;;5086420;28;20031;-38
2022/05/06 12:41:26;;;;;;;6.32;3.45;;;23.90;50.00;;;;;;5089347;28;20057;-37
2022/05/06 12:43:56;;;;;;;7.35;3.25;;;23.50;51.50;;;;;;5089421;28;20016;-37
2022/05/06 12:46:30;;;;;;;5.80;3.30;;;23.60;50.40;;;;;;5074642;28;20017;-37
2022/05/06 12:51:43;;;;;;;6.05;3.22;;;23.50;50.60;;;;;;5089110;28;20031;-37
2022/05/06 12:54:09;;;;;;;8.00;3.53;;;23.40;50.50;;;;;;5089814;28;20412;-37
2022/05/06 12:56:35;;;;;;;5.82;3.45;;;23.10;49.90;;;;;;5088996;28;20032;-38
2022/05/06 12:59:01;;;;;;;6.80;3.08;;;23.10;50.80;;;;;;5083692;28;20016;-37
2022/05/06 13:01:27;;;;;;;6.95;3.63;;;23.40;53.50;;;;;;5064357;28;20039;-38
2022/05/06 13:03:52;;;;;;;5.60;3.08;;;24.20;53.20;;;;;;5068781;28;20115;-37
2022/05/06 13:06:18;;;;;;;5.18;3.40;;;24.30;50.10;;;;;;5068985;28;20501;-37
2022/05/06 13:08:44;;;;;;;4.80;2.65;;;24.00;51.70;;;;;;5068885;28;20099;-37
2022/05/06 13:11:09;;;;;;;5.95;3.15;;;24.00;52.70;;;;;;5067959;28;20162;-38
2022/05/06 13:13:34;;;;;;;5.68;2.95;;;24.20;50.10;;;;;;5066671;28;20489;-39
2022/05/06 13:16:00;;;;;;;3.33;2.67;;;24.60;52.40;;;;;;5072148;28;20028;-37
2022/05/06 13:18:26;;;;;;;4.80;3.28;;;24.70;50.70;;;;;;5087220;28;20190;-38
2022/05/06 13:20:52;;;;;;;6.90;3.40;;;24.40;50.40;;;;;;5089456;28;20290;-38
2022/05/06 13:23:17;;;;;;;6.40;3.08;;;24.70;50.50;;;;;;5088563;28;20115;-45
2022/05/06 13:25:45;;;;;;;4.78;3.15;;;24.90;48.80;;;;;;5088609;28;20062;-55
2022/05/06 13:28:11;;;;;;;4.75;2.75;;;25.10;49.90;;;;;;5087540;28;20020;-38
2022/05/06 13:30:37;;;;;;;6.40;3.00;;;25.40;50.60;;;;;;5088550;28;20030;-44
2022/05/06 13:33:02;;;;;;;4.28;2.92;;;25.50;48.40;;;;;;5087826;28;20082;-37